WXM80 ListenWXM80 Stop

You find our weather info also at:

UK Metoffice

WeatherCloud

Weather Underground

Northeastern Weather Network

AWEKAS

Citizen Weather Observer Program (CWOP)

HAMweather, WeatherForYou, PWS Weather


Weather Underground History page Text

Daily Summary for November 4, 2017 Units:  English    Metric   Both
« Previous Day
Next Day »
Daily Weekly Monthly Yearly Custom
  High: Low: Average:
Temperature: 55.7 °F 48.2 °F 51.3 °F
Dew Point: 47.3 °F 38.7 °F 42.2 °F
Humidity: 88 % 61 % 71 %
Wind Speed: 11.1 mph 0.0 mph 3.5 mph
Wind Gust: 18.4 mph - -
Wind:- - East
Pressure: 30.38 in 30.10 in -
Precipitation: 0.01 in    
Historical Graphs
 
 
Tabular Data for November 4, 2017
Time Temperature Dew Point Pressure Wind Wind Speed Wind Gust Humidity Rainfall Rate (Hourly)
00:02 52.8 °F 41.0 °F 30.21 in NNE 10.2 mph 13.8 mph 64 % 0.00 in
00:07 52.8 °F 41.0 °F 30.21 in NNE 8.1 mph 12.7 mph 64 % 0.00 in
00:12 52.7 °F 40.9 °F 30.22 in NE 10.7 mph 16.1 mph 64 % 0.00 in
00:17 52.6 °F 40.8 °F 30.22 in NNE 9.1 mph 12.7 mph 64 % 0.00 in
00:22 52.5 °F 40.3 °F 30.22 in NNE 8.9 mph 13.8 mph 63 % 0.00 in
00:27 52.4 °F 40.2 °F 30.21 in NNE 7.2 mph 15.0 mph 63 % 0.00 in
00:32 52.3 °F 40.1 °F 30.22 in ENE 8.4 mph 17.3 mph 63 % 0.00 in
00:37 52.2 °F 40.4 °F 30.21 in NNE 8.4 mph 12.7 mph 64 % 0.00 in
00:42 52.1 °F 39.9 °F 30.22 in North 7.4 mph 11.0 mph 63 % 0.00 in
00:47 52.0 °F 40.2 °F 30.22 in NNE 11.1 mph 16.0 mph 64 % 0.00 in
00:52 52.0 °F 40.2 °F 30.23 in North 9.0 mph 15.0 mph 64 % 0.00 in
00:57 51.9 °F 40.5 °F 30.22 in NNE 7.0 mph 13.0 mph 65 % 0.00 in
01:02 51.9 °F 39.7 °F 30.23 in NNE 8.8 mph 16.1 mph 63 % 0.00 in
01:07 51.9 °F 40.5 °F 30.23 in NE 6.0 mph 9.0 mph 65 % 0.00 in
01:12 51.8 °F 39.6 °F 30.23 in North 9.6 mph 16.1 mph 63 % 0.00 in
01:17 51.8 °F 40.4 °F 30.22 in NNW 8.7 mph 11.5 mph 65 % 0.00 in
01:22 51.7 °F 39.9 °F 30.23 in NNE 7.5 mph 13.8 mph 64 % 0.00 in
01:27 51.7 °F 39.9 °F 30.23 in NNE 7.0 mph 11.5 mph 64 % 0.00 in
01:32 51.6 °F 40.6 °F 30.22 in North 8.2 mph 13.8 mph 66 % 0.00 in
01:37 51.6 °F 40.2 °F 30.22 in North 5.3 mph 11.5 mph 65 % 0.00 in
01:43 51.5 °F 40.1 °F 30.23 in North 9.1 mph 13.8 mph 65 % 0.00 in
01:48 51.5 °F 40.5 °F 30.23 in NNE 8.8 mph 11.5 mph 66 % 0.00 in
01:53 51.4 °F 40.0 °F 30.23 in NNW 7.4 mph 11.5 mph 65 % 0.01 in
01:58 51.4 °F 40.4 °F 30.23 in NNW 6.9 mph 10.4 mph 66 % 0.01 in
02:03 51.3 °F 40.3 °F 30.22 in North 9.1 mph 13.8 mph 66 % 0.01 in
02:08 51.3 °F 40.3 °F 30.22 in NNE 6.5 mph 11.0 mph 66 % 0.01 in
02:13 51.2 °F 40.6 °F 30.22 in NNW 6.6 mph 11.5 mph 67 % 0.01 in
02:18 51.1 °F 40.9 °F 30.25 in NNE 7.2 mph 11.5 mph 68 % 0.01 in
02:23 51.0 °F 40.4 °F 30.25 in NNW 8.9 mph 16.1 mph 67 % 0.01 in
02:28 51.0 °F 40.8 °F 30.26 in NNE 6.1 mph 12.0 mph 68 % 0.01 in
02:33 50.9 °F 40.7 °F 30.27 in North 7.6 mph 12.7 mph 68 % 0.01 in
02:38 50.8 °F 41.0 °F 30.24 in NNE 7.9 mph 11.5 mph 69 % 0.01 in
02:43 50.8 °F 41.0 °F 30.23 in NNE 5.4 mph 12.7 mph 69 % 0.01 in
02:48 50.7 °F 40.9 °F 30.27 in NE 6.8 mph 11.5 mph 69 % 0.01 in
02:53 50.6 °F 40.4 °F 30.23 in NNE 8.6 mph 11.5 mph 68 % 0.00 in
02:58 50.5 °F 40.7 °F 30.24 in NE 7.3 mph 10.4 mph 69 % 0.00 in
03:03 50.5 °F 40.3 °F 30.23 in NNE 7.8 mph 12.7 mph 68 % 0.00 in
03:08 50.4 °F 40.6 °F 30.23 in North 8.6 mph 13.8 mph 69 % 0.00 in
03:14 50.3 °F 40.5 °F 30.23 in North 8.9 mph 13.8 mph 69 % 0.00 in
03:19 50.3 °F 40.9 °F 30.23 in NNE 7.7 mph 11.5 mph 70 % 0.00 in
03:24 50.3 °F 40.9 °F 30.23 in North 6.2 mph 11.5 mph 70 % 0.00 in
03:29 50.3 °F 40.5 °F 30.23 in North 6.9 mph 11.5 mph 69 % 0.00 in
03:34 50.2 °F 41.2 °F 30.23 in NNE 8.2 mph 11.5 mph 71 % 0.00 in
03:39 50.1 °F 41.1 °F 30.27 in NNE 4.4 mph 11.5 mph 71 % 0.00 in
03:44 50.1 °F 41.1 °F 30.27 in North 4.8 mph 6.9 mph 71 % 0.00 in
03:49 50.0 °F 41.0 °F 30.23 in North 5.0 mph 8.1 mph 71 % 0.00 in
03:54 49.9 °F 40.9 °F 30.28 in North 3.0 mph 3.5 mph 71 % 0.00 in
03:56 49.9 °F 40.9 °F 30.28 in NNE 3.0 mph 9.0 mph 71 % 0.00 in
04:01 49.8 °F 41.1 °F 30.24 in North 6.7 mph 9.2 mph 72 % 0.00 in
04:06 49.7 °F 41.0 °F 30.25 in North 6.5 mph 14.0 mph 72 % 0.00 in
04:11 49.6 °F 40.6 °F 30.24 in North 4.7 mph 9.2 mph 71 % 0.00 in
04:16 49.6 °F 40.9 °F 30.23 in NNE 7.9 mph 13.8 mph 72 % 0.00 in
04:21 49.6 °F 40.9 °F 30.24 in North 3.3 mph 8.1 mph 72 % 0.00 in
04:26 49.5 °F 40.8 °F 30.28 in NNE 3.9 mph 6.0 mph 72 % 0.00 in
04:31 49.5 °F 41.2 °F 30.28 in NNE 7.6 mph 10.4 mph 73 % 0.00 in
04:36 49.4 °F 40.7 °F 30.24 in North 7.8 mph 11.5 mph 72 % 0.00 in
04:41 49.4 °F 40.7 °F 30.24 in NNE 5.1 mph 7.0 mph 72 % 0.00 in
04:46 49.3 °F 40.7 °F 30.24 in NNE 6.3 mph 9.2 mph 72 % 0.00 in
04:51 49.2 °F 40.6 °F 30.25 in NNE 4.8 mph 8.1 mph 72 % 0.00 in
04:56 49.2 °F 40.6 °F 30.26 in NNE 4.8 mph 11.5 mph 72 % 0.00 in
05:01 49.2 °F 40.9 °F 30.31 in North 5.6 mph 10.4 mph 73 % 0.00 in
05:06 49.2 °F 40.9 °F 30.26 in NNE 4.4 mph 9.2 mph 73 % 0.00 in
05:11 49.1 °F 41.2 °F 30.31 in North 4.4 mph 8.1 mph 74 % 0.00 in
05:16 49.1 °F 40.5 °F 30.31 in NNE 6.2 mph 11.5 mph 72 % 0.00 in
05:21 49.0 °F 40.0 °F 30.27 in NE 6.9 mph 11.5 mph 71 % 0.00 in
05:26 49.0 °F 40.0 °F 30.28 in ENE 4.5 mph 10.4 mph 71 % 0.00 in
05:31 49.0 °F 40.0 °F 30.27 in North 4.2 mph 8.1 mph 71 % 0.00 in
05:36 48.9 °F 39.9 °F 30.27 in NNE 5.7 mph 10.4 mph 71 % 0.00 in
05:41 48.8 °F 40.2 °F 30.29 in North 6.8 mph 11.5 mph 72 % 0.00 in
05:46 48.8 °F 40.2 °F 30.29 in NNE 2.4 mph 8.0 mph 72 % 0.00 in
05:51 48.7 °F 40.1 °F 30.32 in East 4.8 mph 10.0 mph 72 % 0.00 in
05:56 48.7 °F 40.1 °F 30.29 in North 6.9 mph 9.2 mph 72 % 0.00 in
06:01 48.6 °F 40.0 °F 30.29 in North 8.7 mph 11.5 mph 72 % 0.00 in
06:06 48.5 °F 39.5 °F 30.32 in NNW 8.1 mph 11.5 mph 71 % 0.00 in
06:11 48.5 °F 39.5 °F 30.29 in NNE 5.1 mph 9.0 mph 71 % 0.00 in
06:16 48.5 °F 39.5 °F 30.30 in North 6.4 mph 11.5 mph 71 % 0.00 in
06:21 48.4 °F 39.4 °F 30.30 in North 5.4 mph 8.0 mph 71 % 0.00 in
06:26 48.4 °F 39.1 °F 30.30 in NNE 6.5 mph 11.5 mph 70 % 0.00 in
06:31 48.4 °F 39.1 °F 30.32 in NNE 6.1 mph 11.5 mph 70 % 0.00 in
06:36 48.4 °F 39.4 °F 30.32 in North 3.3 mph 6.9 mph 71 % 0.00 in
06:41 48.4 °F 39.1 °F 30.32 in NNE 10.4 mph 18.4 mph 70 % 0.00 in
06:42 48.4 °F 38.7 °F 30.32 in NE 7.2 mph 13.8 mph 69 % 0.00 in
06:47 48.4 °F 39.1 °F 30.32 in NNE 5.8 mph 12.0 mph 70 % 0.00 in
06:52 48.4 °F 39.1 °F 30.32 in NNE 3.6 mph 7.0 mph 70 % 0.00 in
06:57 48.4 °F 39.1 °F 30.32 in NE 4.4 mph 15.0 mph 70 % 0.00 in
07:02 48.4 °F 39.1 °F 30.33 in North 6.3 mph 12.7 mph 70 % 0.00 in
07:07 48.4 °F 39.1 °F 30.33 in North 9.2 mph 13.8 mph 70 % 0.00 in
07:12 48.4 °F 39.4 °F 30.32 in North 9.4 mph 13.8 mph 71 % 0.00 in
07:18 48.3 °F 39.3 °F 30.33 in ENE 3.8 mph 11.5 mph 71 % 0.00 in
07:23 48.3 °F 39.7 °F 30.33 in NNE 5.3 mph 11.5 mph 72 % 0.00 in
07:28 48.3 °F 39.7 °F 30.33 in NNE 6.8 mph 10.4 mph 72 % 0.00 in
07:33 48.2 °F 39.6 °F 30.33 in NNE 7.4 mph 10.4 mph 72 % 0.00 in
07:38 48.2 °F 39.2 °F 30.33 in NNE 6.9 mph 11.5 mph 71 % 0.00 in
07:43 48.2 °F 39.6 °F 30.34 in North 6.3 mph 11.5 mph 72 % 0.00 in
07:48 48.2 °F 39.2 °F 30.34 in North 7.8 mph 11.5 mph 71 % 0.00 in
07:53 48.2 °F 39.2 °F 30.34 in NNE 4.7 mph 9.2 mph 71 % 0.00 in
07:58 48.2 °F 39.6 °F 30.34 in NNE 4.3 mph 11.5 mph 72 % 0.00 in
08:03 48.2 °F 39.6 °F 30.35 in NNE 3.8 mph 10.4 mph 72 % 0.00 in
08:08 48.2 °F 39.6 °F 30.35 in NE 4.8 mph 9.2 mph 72 % 0.00 in
08:13 48.2 °F 39.6 °F 30.36 in North 4.9 mph 10.4 mph 72 % 0.00 in
08:18 48.3 °F 39.7 °F 30.36 in NNE 3.0 mph 6.9 mph 72 % 0.00 in
08:23 48.4 °F 40.1 °F 30.37 in NE 1.1 mph 3.5 mph 73 % 0.00 in
08:28 48.4 °F 39.8 °F 30.37 in NNE 3.4 mph 6.9 mph 72 % 0.00 in
08:33 48.4 °F 39.4 °F 30.37 in North 4.2 mph 8.0 mph 71 % 0.00 in
08:38 48.5 °F 39.9 °F 30.37 in East 3.4 mph 6.0 mph 72 % 0.00 in
08:43 48.6 °F 40.0 °F 30.34 in East 4.1 mph 10.4 mph 72 % 0.00 in
08:48 48.7 °F 40.1 °F 30.37 in North 2.5 mph 3.5 mph 72 % 0.00 in
08:53 48.7 °F 40.4 °F 30.37 in North 2.4 mph 4.0 mph 73 % 0.00 in
08:58 48.8 °F 40.5 °F 30.37 in ENE 4.1 mph 6.9 mph 73 % 0.00 in
09:03 48.8 °F 40.5 °F 30.36 in ENE 4.2 mph 8.1 mph 73 % 0.00 in
09:08 48.9 °F 40.3 °F 30.37 in ENE 5.3 mph 9.0 mph 72 % 0.00 in
09:13 49.0 °F 39.6 °F 30.37 in ENE 3.7 mph 10.4 mph 70 % 0.00 in
09:18 49.2 °F 40.2 °F 30.37 in ENE 3.3 mph 4.0 mph 71 % 0.00 in
09:23 49.3 °F 39.9 °F 30.37 in NE 3.1 mph 6.9 mph 70 % 0.00 in
09:29 49.5 °F 40.1 °F 30.37 in East 6.5 mph 9.2 mph 70 % 0.00 in
09:34 49.7 °F 39.9 °F 30.37 in NE 5.5 mph 7.0 mph 69 % 0.00 in
09:39 50.2 °F 40.0 °F 30.37 in ENE 4.0 mph 6.9 mph 68 % 0.00 in
09:44 50.8 °F 40.2 °F 30.38 in ENE 6.1 mph 10.4 mph 67 % 0.00 in
09:49 51.2 °F 40.2 °F 30.37 in ENE 5.2 mph 9.2 mph 66 % 0.00 in
09:54 51.5 °F 40.5 °F 30.37 in ENE 5.7 mph 10.4 mph 66 % 0.00 in
09:59 51.6 °F 40.2 °F 30.37 in NE 4.9 mph 11.5 mph 65 % 0.00 in
10:04 51.7 °F 40.3 °F 30.37 in North 3.3 mph 9.2 mph 65 % 0.00 in
10:09 51.8 °F 40.8 °F 30.37 in NE 4.2 mph 6.0 mph 66 % 0.00 in
10:14 51.7 °F 40.7 °F 30.37 in ENE 4.0 mph 6.9 mph 66 % 0.00 in
10:19 51.9 °F 41.3 °F 30.37 in NE 6.4 mph 10.4 mph 67 % 0.00 in
10:24 51.9 °F 40.1 °F 30.37 in NNE 4.1 mph 8.1 mph 64 % 0.00 in
10:29 52.1 °F 41.1 °F 30.37 in ENE 3.6 mph 6.9 mph 66 % 0.00 in
10:34 52.4 °F 41.0 °F 30.37 in NNE 4.9 mph 8.1 mph 65 % 0.00 in
10:39 52.5 °F 40.3 °F 30.38 in East 4.6 mph 9.2 mph 63 % 0.00 in
10:42 52.4 °F 39.8 °F 30.38 in ENE 5.1 mph 8.1 mph 62 % 0.00 in
10:47 52.4 °F 40.6 °F 30.38 in NNE 2.9 mph 8.1 mph 64 % 0.00 in
10:52 52.4 °F 41.0 °F 30.37 in ENE 3.6 mph 11.5 mph 65 % 0.00 in
11:02 52.6 °F 40.8 °F 30.37 in ENE 5.5 mph 9.2 mph 64 % 0.00 in
11:07 52.6 °F 40.8 °F 30.37 in NE 5.8 mph 9.2 mph 64 % 0.00 in
11:12 52.6 °F 41.6 °F 30.36 in NE 3.8 mph 6.0 mph 66 % 0.00 in
11:17 52.9 °F 41.4 °F 30.37 in ENE 7.2 mph 9.2 mph 65 % 0.00 in
11:22 53.0 °F 41.1 °F 30.37 in ENE 5.0 mph 9.2 mph 64 % 0.00 in
11:27 53.1 °F 41.2 °F 30.37 in ENE 4.4 mph 9.2 mph 64 % 0.00 in
11:32 53.2 °F 41.7 °F 30.37 in ENE 5.9 mph 10.0 mph 65 % 0.00 in
11:37 53.1 °F 41.2 °F 30.37 in ENE 5.5 mph 9.2 mph 64 % 0.00 in
11:42 53.0 °F 40.7 °F 30.36 in East 4.3 mph 9.0 mph 63 % 0.00 in
11:47 53.0 °F 41.1 °F 30.36 in ENE 4.2 mph 8.1 mph 64 % 0.00 in
11:52 53.2 °F 41.7 °F 30.36 in ENE 3.9 mph 6.9 mph 65 % 0.00 in
11:57 53.2 °F 41.3 °F 30.36 in ENE 2.8 mph 8.1 mph 64 % 0.00 in
12:02 53.3 °F 41.4 °F 30.35 in ENE 5.9 mph 6.9 mph 64 % 0.00 in
12:07 53.5 °F 41.6 °F 30.36 in ENE 5.3 mph 8.1 mph 64 % 0.00 in
12:12 53.7 °F 41.4 °F 30.36 in ENE 5.3 mph 9.2 mph 63 % 0.00 in
12:17 53.8 °F 41.5 °F 30.35 in ENE 4.8 mph 7.0 mph 63 % 0.00 in
12:23 53.8 °F 42.7 °F 30.35 in ENE 2.6 mph 3.5 mph 66 % 0.00 in
12:28 53.7 °F 42.2 °F 30.35 in East 6.1 mph 8.1 mph 65 % 0.00 in
12:33 53.4 °F 41.5 °F 30.35 in ENE 3.5 mph 6.9 mph 64 % 0.00 in
12:38 53.3 °F 41.4 °F 30.35 in ENE 5.4 mph 8.1 mph 64 % 0.00 in
12:43 53.1 °F 40.8 °F 30.35 in ENE 4.7 mph 8.1 mph 63 % 0.00 in
12:48 53.0 °F 41.5 °F 30.35 in ENE 4.3 mph 6.9 mph 65 % 0.00 in
12:58 53.2 °F 41.7 °F 30.35 in NE 3.4 mph 4.6 mph 65 % 0.00 in
13:03 53.3 °F 41.4 °F 30.35 in ENE 3.8 mph 5.0 mph 64 % 0.00 in
13:08 53.3 °F 41.4 °F 30.36 in ENE 1.1 mph 2.3 mph 64 % 0.00 in
13:13 53.4 °F 41.9 °F 30.35 in ENE 0.6 mph 2.0 mph 65 % 0.00 in
13:18 53.4 °F 41.9 °F 30.35 in East 1.2 mph 3.5 mph 65 % 0.00 in
13:23 53.5 °F 41.6 °F 30.35 in ENE 1.7 mph 3.5 mph 64 % 0.00 in
13:28 53.5 °F 40.4 °F 30.33 in NE 4.5 mph 8.1 mph 61 % 0.00 in
13:33 53.5 °F 41.6 °F 30.34 in East 0.9 mph 2.0 mph 64 % 0.00 in
13:38 53.6 °F 41.3 °F 30.34 in ENE 0.1 mph 2.3 mph 63 % 0.00 in
13:43 53.7 °F 41.4 °F 30.33 in ENE 0.6 mph 2.0 mph 63 % 0.00 in
13:48 53.8 °F 41.9 °F 30.33 in East 0.4 mph 2.3 mph 64 % 0.00 in
13:53 54.0 °F 42.1 °F 30.33 in East 0.4 mph 2.3 mph 64 % 0.00 in
13:58 54.2 °F 41.9 °F 30.33 in Calm   2.3 mph 63 % 0.00 in
14:03 54.4 °F 42.1 °F 30.33 in East 1.2 mph 2.0 mph 63 % 0.00 in
14:09 54.5 °F 41.7 °F 30.32 in ENE 0.2 mph 1.2 mph 62 % 0.00 in
14:13 54.7 °F 42.8 °F 30.32 in ENE 0.1 mph 2.3 mph 64 % 0.00 in
14:18 54.7 °F 42.3 °F 30.32 in NE 0.4 mph 2.3 mph 63 % 0.00 in
14:23 54.8 °F 42.9 °F 30.32 in Calm   1.2 mph 64 % 0.00 in
14:28 55.0 °F 43.0 °F 30.32 in NE 0.1 mph 3.5 mph 64 % 0.00 in
14:34 55.2 °F 43.6 °F 30.32 in ENE 3.6 mph 4.0 mph 65 % 0.00 in
14:39 55.2 °F 42.8 °F 30.31 in ENE 3.3 mph 4.6 mph 63 % 0.00 in
14:44 55.4 °F 43.0 °F 30.31 in NE 2.3 mph 4.6 mph 63 % 0.00 in
14:54 55.6 °F 42.8 °F 30.31 in NE 2.6 mph 4.0 mph 62 % 0.00 in
14:59 55.6 °F 42.8 °F 30.31 in ENE 0.6 mph 8.1 mph 62 % 0.00 in
15:00 55.5 °F 43.1 °F 30.31 in Calm   1.2 mph 63 % 0.00 in
15:05 55.7 °F 43.7 °F 30.31 in ENE 0.1 mph 1.2 mph 64 % 0.00 in
15:10 55.7 °F 43.7 °F 30.31 in ENE 1.4 mph 3.5 mph 64 % 0.00 in
15:15 55.7 °F 43.3 °F 30.31 in ENE 0.9 mph 2.3 mph 63 % 0.00 in
15:20 55.5 °F 43.1 °F 30.31 in ENE 2.4 mph 3.5 mph 63 % 0.00 in
15:25 55.3 °F 43.7 °F 30.32 in Calm     65 % 0.00 in
15:30 55.3 °F 44.1 °F 30.31 in ENE 0.1 mph 1.2 mph 66 % 0.00 in
15:35 55.1 °F 44.3 °F 30.31 in NE 0.2 mph 1.2 mph 67 % 0.00 in
15:40 55.1 °F 43.5 °F 30.31 in Calm   1.2 mph 65 % 0.00 in
15:45 55.0 °F 43.4 °F 30.32 in ENE 0.6 mph 2.3 mph 65 % 0.00 in
15:50 54.9 °F 43.7 °F 30.32 in ENE 1.7 mph 3.0 mph 66 % 0.00 in
15:55 54.8 °F 43.7 °F 30.32 in Calm   1.2 mph 66 % 0.00 in
16:01 54.7 °F 43.6 °F 30.32 in ENE 2.7 mph 3.5 mph 66 % 0.00 in
16:06 54.6 °F 43.9 °F 30.32 in Calm   4.0 mph 67 % 0.00 in
16:11 54.6 °F 43.9 °F 30.32 in ENE 1.0 mph 2.0 mph 67 % 0.00 in
16:16 54.6 °F 43.8 °F 30.32 in Calm   2.0 mph 67 % 0.00 in
16:21 54.5 °F 43.8 °F 30.32 in Calm     67 % 0.00 in
16:26 54.5 °F 43.4 °F 30.32 in ENE 0.6 mph 2.0 mph 66 % 0.00 in
16:31 54.4 °F 43.3 °F 30.32 in ENE 1.0 mph 4.0 mph 66 % 0.00 in
16:36 54.4 °F 43.7 °F 30.32 in ENE 1.8 mph 3.5 mph 67 % 0.00 in
16:41 54.3 °F 43.2 °F 30.32 in Calm   2.0 mph 66 % 0.00 in
16:46 54.3 °F 43.6 °F 30.32 in Calm   2.0 mph 67 % 0.00 in
16:51 54.3 °F 44.0 °F 30.32 in NE 0.1 mph 1.2 mph 68 % 0.00 in
16:56 54.2 °F 44.2 °F 30.32 in ENE 0.8 mph 2.3 mph 69 % 0.00 in
17:01 54.1 °F 44.2 °F 30.32 in Calm     69 % 0.00 in
17:06 54.1 °F 44.5 °F 30.32 in Calm   1.2 mph 70 % 0.00 in
17:12 54.0 °F 44.4 °F 30.32 in Calm     70 % 0.00 in
17:16 53.9 °F 44.3 °F 30.32 in Calm     70 % 0.00 in
17:22 53.8 °F 44.6 °F 30.32 in Calm     71 % 0.00 in
17:27 53.7 °F 44.5 °F 30.32 in Calm     71 % 0.00 in
17:32 53.6 °F 44.4 °F 30.32 in Calm     71 % 0.00 in
17:37 53.5 °F 44.3 °F 30.32 in Calm     71 % 0.00 in
17:42 53.3 °F 44.1 °F 30.32 in Calm     71 % 0.00 in
17:47 53.2 °F 44.0 °F 30.32 in ENE 0.1 mph 1.2 mph 71 % 0.00 in
17:52 53.1 °F 44.3 °F 30.32 in Calm     72 % 0.00 in
17:57 52.9 °F 44.1 °F 30.32 in Calm     72 % 0.00 in
18:02 52.7 °F 44.3 °F 30.36 in East 0.5 mph 3.5 mph 73 % 0.00 in
18:07 52.4 °F 44.4 °F 30.36 in East 1.8 mph 3.0 mph 74 % 0.00 in
18:13 52.2 °F 44.5 °F 30.35 in SE 2.3 mph 3.5 mph 75 % 0.00 in
18:18 51.9 °F 44.2 °F 30.35 in SE 2.9 mph 3.5 mph 75 % 0.00 in
18:24 51.7 °F 44.0 °F 30.33 in SE 1.0 mph 3.5 mph 75 % 0.00 in
18:29 51.5 °F 43.8 °F 30.33 in SE 1.7 mph 2.3 mph 75 % 0.00 in
18:34 51.3 °F 43.6 °F 30.33 in SE 1.5 mph 3.5 mph 75 % 0.00 in
18:39 51.1 °F 43.4 °F 30.33 in SSE 0.8 mph 3.5 mph 75 % 0.00 in
18:44 50.9 °F 43.6 °F 30.33 in SE 0.7 mph 2.3 mph 76 % 0.00 in
18:45 50.8 °F 43.5 °F 30.33 in SE 0.8 mph 2.3 mph 76 % 0.00 in
18:50 50.6 °F 43.3 °F 30.33 in SE 0.9 mph 3.5 mph 76 % 0.00 in
18:56 50.5 °F 43.2 °F 30.36 in SE 1.0 mph 4.0 mph 76 % 0.00 in
19:01 50.3 °F 43.4 °F 30.34 in SSE 1.2 mph 3.5 mph 77 % 0.00 in
19:06 50.2 °F 43.3 °F 30.33 in SE 0.6 mph 3.5 mph 77 % 0.00 in
19:11 50.0 °F 43.1 °F 30.33 in SE 1.0 mph 5.0 mph 77 % 0.00 in
19:16 49.9 °F 43.3 °F 30.33 in SE 1.0 mph 5.0 mph 78 % 0.00 in
19:21 49.8 °F 43.2 °F 30.33 in Calm   4.0 mph 78 % 0.00 in
19:26 49.7 °F 43.5 °F 30.33 in Calm   1.0 mph 79 % 0.00 in
19:31 49.6 °F 43.4 °F 30.33 in Calm     79 % 0.00 in
19:36 49.5 °F 43.3 °F 30.33 in Calm   2.0 mph 79 % 0.00 in
19:41 49.4 °F 43.2 °F 30.33 in Calm   2.0 mph 79 % 0.00 in
19:46 49.3 °F 43.4 °F 30.33 in Calm   2.0 mph 80 % 0.00 in
19:51 49.3 °F 43.4 °F 30.33 in Calm   1.0 mph 80 % 0.00 in
19:56 49.2 °F 43.3 °F 30.33 in Calm   2.0 mph 80 % 0.00 in
20:01 49.2 °F 43.3 °F 30.33 in Calm   2.3 mph 80 % 0.00 in
20:06 49.1 °F 43.5 °F 30.33 in Calm   1.2 mph 81 % 0.00 in
20:11 49.1 °F 43.5 °F 30.33 in Calm   2.3 mph 81 % 0.00 in
20:16 49.0 °F 43.4 °F 30.33 in SE 0.8 mph 2.3 mph 81 % 0.00 in
20:21 49.0 °F 43.7 °F 30.32 in Calm   1.2 mph 82 % 0.00 in
20:26 48.9 °F 43.6 °F 30.33 in SE 1.0 mph 2.3 mph 82 % 0.00 in
20:31 48.8 °F 43.5 °F 30.32 in Calm     82 % 0.00 in
20:36 48.8 °F 43.5 °F 30.32 in Calm     82 % 0.00 in
20:41 48.7 °F 43.8 °F 30.32 in Calm     83 % 0.00 in
20:46 48.7 °F 43.8 °F 30.32 in SE 0.3 mph 2.3 mph 83 % 0.00 in
20:51 48.6 °F 43.7 °F 30.32 in Calm     83 % 0.00 in
20:56 48.6 °F 44.0 °F 30.33 in Calm   1.2 mph 84 % 0.00 in
21:01 48.5 °F 43.9 °F 30.32 in Calm   1.2 mph 84 % 0.00 in
21:06 48.5 °F 43.9 °F 30.32 in Calm     84 % 0.00 in
21:11 48.4 °F 43.8 °F 30.33 in SE 0.1 mph 1.0 mph 84 % 0.00 in
21:16 48.5 °F 44.2 °F 30.33 in SE 0.2 mph 1.2 mph 85 % 0.00 in
21:21 48.5 °F 44.8 °F 30.32 in ESE 1.0 mph 1.2 mph 87 % 0.00 in
21:26 48.7 °F 45.3 °F 30.32 in ESE 0.9 mph 2.3 mph 88 % 0.00 in
21:32 49.0 °F 45.6 °F 30.32 in ESE 0.6 mph 2.3 mph 88 % 0.00 in
21:37 49.3 °F 45.9 °F 30.32 in ESE 0.7 mph 3.5 mph 88 % 0.00 in
21:42 49.6 °F 46.2 °F 30.33 in ESE 0.4 mph 2.3 mph 88 % 0.00 in
21:47 49.9 °F 46.5 °F 30.33 in East 1.8 mph 3.5 mph 88 % 0.00 in
21:52 50.3 °F 46.9 °F 30.32 in ENE 1.8 mph 5.8 mph 88 % 0.00 in
21:57 50.6 °F 46.9 °F 30.32 in East 1.9 mph 3.5 mph 87 % 0.00 in
22:02 50.9 °F 46.9 °F 30.31 in East 2.7 mph 4.6 mph 86 % 0.00 in
22:07 51.1 °F 47.1 °F 30.31 in East 2.4 mph 5.0 mph 86 % 0.00 in
22:12 51.4 °F 47.0 °F 30.31 in East 1.1 mph 2.3 mph 85 % 0.00 in
22:17 51.5 °F 47.1 °F 30.31 in East 1.2 mph 2.3 mph 85 % 0.00 in
22:22 51.6 °F 47.2 °F 30.31 in ESE 1.6 mph 5.0 mph 85 % 0.00 in
22:27 51.8 °F 47.1 °F 30.31 in ENE 1.3 mph 3.5 mph 84 % 0.00 in
22:32 51.8 °F 47.1 °F 30.30 in East 1.3 mph 4.6 mph 84 % 0.00 in
22:37 51.9 °F 46.9 °F 30.31 in East 2.5 mph 4.6 mph 83 % 0.00 in
22:42 51.9 °F 46.9 °F 30.31 in East 0.5 mph 2.3 mph 83 % 0.00 in
22:47 51.9 °F 46.9 °F 30.33 in Calm   1.0 mph 83 % 0.00 in
22:52 51.9 °F 46.9 °F 30.33 in East 0.3 mph 1.2 mph 83 % 0.00 in
22:57 51.9 °F 46.9 °F 30.33 in East 0.1 mph 2.3 mph 83 % 0.00 in
23:02 51.9 °F 46.9 °F 30.34 in Calm     83 % 0.00 in
23:08 51.9 °F 46.9 °F 30.33 in East 0.4 mph 2.3 mph 83 % 0.00 in
23:15 51.9 °F 46.9 °F 30.34 in Calm   1.2 mph 83 % 0.00 in
23:20 51.9 °F 46.9 °F 30.37 in Calm     83 % 0.00 in
23:21 51.9 °F 46.9 °F 30.37 in ESE 0.7 mph 2.3 mph 83 % 0.00 in
23:26 51.9 °F 46.9 °F 30.37 in Calm   3.0 mph 83 % 0.00 in
23:27 51.9 °F 46.9 °F 30.10 in East 0.3 mph 2.3 mph 83 % 0.00 in
23:32 52.0 °F 47.0 °F 30.34 in SE 0.3 mph 1.2 mph 83 % 0.00 in
23:36 52.0 °F 47.0 °F 30.34 in SE 0.3 mph 1.2 mph 83 % 0.00 in
23:41 52.1 °F 47.1 °F 30.35 in SE 0.1 mph 1.2 mph 83 % 0.00 in
23:46 52.1 °F 47.1 °F 30.36 in SE 0.1 mph 1.2 mph 83 % 0.00 in
23:51 52.2 °F 47.2 °F 30.36 in SE 1.3 mph 2.3 mph 83 % 0.00 in
23:56 52.3 °F 47.3 °F 30.36 in ENE 1.3 mph 2.3 mph 83 % 0.00 in
Crab Meadow Weather
Compliments of Weather Underground - 3 mb

Script developed by  Jim McMurry - jmcmurry@mwt.net Adapted for the template by  Wim van der Kuil - Leuven-Template.eu

Barometer: A barometer is an instrument used to measure atmospheric pressure. A barometer is commonly used for weather prediction, as high air pressure in a region indicates fair weather while low pressure indicates that storms are more likely. When used in combination with wind observations, reasonably accurate short-term forecasts can be made.